<?xml version="1.0" encoding="UTF-8" standalone="no" ?>
<gpx xmlns="http://www.topografix.com/GPX/1/1" xmlns:xsi="http://www.w3.org/2001/XMLSchema-instance" xsi:schemaLocation="http://www.topografix.com/GPX/1/1 http://www.topografix.com/GPX/1/1/gpx.xsd" version="1.1" creator="VisuGPX - https://www.visugpx.com">
  <metadata>
    <name>Les Dentelles de Montmirail depuis Gigondas</name>
    <desc><![CDATA[Boucle sans difficultés dans les Dentelles de Montmirail en passant par le Pas de l'Aigle.]]></desc>
  </metadata>
  <trk>
    <name><![CDATA[20181007095220-de1xB]]></name>
    <trkseg>
      <trkpt lat="44.16336" lon="5.00276">
        <ele>233</ele>
        <time>2018-10-07T09:51:20 02:00</time>
      </trkpt>
      <trkpt lat="44.16324" lon="5.00325">
        <ele>237</ele>
        <time>2018-10-07T09:51:25 02:00</time>
      </trkpt>
      <trkpt lat="44.16322" lon="5.00344">
        <ele>238</ele>
        <time>2018-10-07T09:51:30 02:00</time>
      </trkpt>
      <trkpt lat="44.16332" lon="5.00372">
        <ele>239</ele>
        <time>2018-10-07T09:51:35 02:00</time>
      </trkpt>
      <trkpt lat="44.16342" lon="5.004">
        <ele>240</ele>
        <time>2018-10-07T09:51:40 02:00</time>
      </trkpt>
      <trkpt lat="44.16327" lon="5.00407">
        <ele>243</ele>
        <time>2018-10-07T09:51:45 02:00</time>
      </trkpt>
      <trkpt lat="44.16325" lon="5.00409">
        <ele>243</ele>
        <time>2018-10-07T09:51:50 02:00</time>
      </trkpt>
      <trkpt lat="44.16328" lon="5.00419">
        <ele>243</ele>
        <time>2018-10-07T09:51:55 02:00</time>
      </trkpt>
      <trkpt lat="44.16337" lon="5.00425">
        <ele>243</ele>
        <time>2018-10-07T09:52:00 02:00</time>
      </trkpt>
      <trkpt lat="44.16366" lon="5.00429">
        <ele>241</ele>
        <time>2018-10-07T09:52:05 02:00</time>
      </trkpt>
      <trkpt lat="44.16386" lon="5.00455">
        <ele>241</ele>
        <time>2018-10-07T09:52:10 02:00</time>
      </trkpt>
      <trkpt lat="44.16411" lon="5.00489">
        <ele>241</ele>
        <time>2018-10-07T09:52:15 02:00</time>
      </trkpt>
      <trkpt lat="44.16416" lon="5.0051">
        <ele>243</ele>
        <time>2018-10-07T09:52:20 02:00</time>
      </trkpt>
      <trkpt lat="44.16416" lon="5.00523">
        <ele>244</ele>
        <time>2018-10-07T09:52:25 02:00</time>
      </trkpt>
      <trkpt lat="44.16413" lon="5.00542">
        <ele>248</ele>
        <time>2018-10-07T09:52:30 02:00</time>
      </trkpt>
      <trkpt lat="44.16427" lon="5.00563">
        <ele>248</ele>
        <time>2018-10-07T09:52:35 02:00</time>
      </trkpt>
      <trkpt lat="44.16435" lon="5.00582">
        <ele>249</ele>
        <time>2018-10-07T09:52:40 02:00</time>
      </trkpt>
      <trkpt lat="44.16442" lon="5.00605">
        <ele>251</ele>
        <time>2018-10-07T09:52:45 02:00</time>
      </trkpt>
      <trkpt lat="44.16449" lon="5.00627">
        <ele>252</ele>
        <time>2018-10-07T09:52:50 02:00</time>
      </trkpt>
      <trkpt lat="44.16464" lon="5.00653">
        <ele>252</ele>
        <time>2018-10-07T09:52:55 02:00</time>
      </trkpt>
      <trkpt lat="44.16466" lon="5.00689">
        <ele>257</ele>
        <time>2018-10-07T09:53:00 02:00</time>
      </trkpt>
      <trkpt lat="44.16507" lon="5.00753">
        <ele>259</ele>
        <time>2018-10-07T09:53:05 02:00</time>
      </trkpt>
      <trkpt lat="44.16522" lon="5.00778">
        <ele>262</ele>
        <time>2018-10-07T09:53:10 02:00</time>
      </trkpt>
      <trkpt lat="44.1654" lon="5.00812">
        <ele>264</ele>
        <time>2018-10-07T09:53:15 02:00</time>
      </trkpt>
      <trkpt lat="44.1655" lon="5.00832">
        <ele>265</ele>
        <time>2018-10-07T09:53:20 02:00</time>
      </trkpt>
      <trkpt lat="44.16562" lon="5.00838">
        <ele>262</ele>
        <time>2018-10-07T09:53:25 02:00</time>
      </trkpt>
      <trkpt lat="44.16576" lon="5.00857">
        <ele>260</ele>
        <time>2018-10-07T09:53:30 02:00</time>
      </trkpt>
      <trkpt lat="44.16586" lon="5.00879">
        <ele>260</ele>
        <time>2018-10-07T09:53:35 02:00</time>
      </trkpt>
      <trkpt lat="44.1659" lon="5.00905">
        <ele>262</ele>
        <time>2018-10-07T09:53:40 02:00</time>
      </trkpt>
      <trkpt lat="44.16592" lon="5.0093">
        <ele>264</ele>
        <time>2018-10-07T09:53:45 02:00</time>
      </trkpt>
      <trkpt lat="44.166" lon="5.00944">
        <ele>264</ele>
        <time>2018-10-07T09:53:50 02:00</time>
      </trkpt>
      <trkpt lat="44.1661" lon="5.00961">
        <ele>265</ele>
        <time>2018-10-07T09:53:55 02:00</time>
      </trkpt>
      <trkpt lat="44.16624" lon="5.00978">
        <ele>264</ele>
        <time>2018-10-07T09:54:00 02:00</time>
      </trkpt>
      <trkpt lat="44.1664" lon="5.01015">
        <ele>265</ele>
        <time>2018-10-07T09:54:05 02:00</time>
      </trkpt>
      <trkpt lat="44.16652" lon="5.01042">
        <ele>264</ele>
        <time>2018-10-07T09:54:10 02:00</time>
      </trkpt>
      <trkpt lat="44.16668" lon="5.01107">
        <ele>262</ele>
        <time>2018-10-07T09:54:15 02:00</time>
      </trkpt>
      <trkpt lat="44.16655" lon="5.01171">
        <ele>265</ele>
        <time>2018-10-07T09:54:20 02:00</time>
      </trkpt>
      <trkpt lat="44.16648" lon="5.01182">
        <ele>267</ele>
        <time>2018-10-07T09:54:25 02:00</time>
      </trkpt>
      <trkpt lat="44.16632" lon="5.01207">
        <ele>272</ele>
        <time>2018-10-07T09:54:30 02:00</time>
      </trkpt>
      <trkpt lat="44.16622" lon="5.01233">
        <ele>274</ele>
        <time>2018-10-07T09:54:35 02:00</time>
      </trkpt>
      <trkpt lat="44.16614" lon="5.01258">
        <ele>275</ele>
        <time>2018-10-07T09:54:40 02:00</time>
      </trkpt>
      <trkpt lat="44.16607" lon="5.01299">
        <ele>275</ele>
        <time>2018-10-07T09:54:45 02:00</time>
      </trkpt>
      <trkpt lat="44.16599" lon="5.01346">
        <ele>274</ele>
        <time>2018-10-07T09:54:50 02:00</time>
      </trkpt>
      <trkpt lat="44.16594" lon="5.01398">
        <ele>272</ele>
        <time>2018-10-07T09:54:55 02:00</time>
      </trkpt>
      <trkpt lat="44.16592" lon="5.01411">
        <ele>271</ele>
        <time>2018-10-07T09:55:00 02:00</time>
      </trkpt>
      <trkpt lat="44.16596" lon="5.01417">
        <ele>271</ele>
        <time>2018-10-07T09:55:05 02:00</time>
      </trkpt>
      <trkpt lat="44.16603" lon="5.01423">
        <ele>272</ele>
        <time>2018-10-07T09:55:10 02:00</time>
      </trkpt>
      <trkpt lat="44.16611" lon="5.01423">
        <ele>273</ele>
        <time>2018-10-07T09:55:15 02:00</time>
      </trkpt>
      <trkpt lat="44.16616" lon="5.01421">
        <ele>273</ele>
        <time>2018-10-07T09:55:20 02:00</time>
      </trkpt>
      <trkpt lat="44.16627" lon="5.01405">
        <ele>274</ele>
        <time>2018-10-07T09:55:25 02:00</time>
      </trkpt>
      <trkpt lat="44.16626" lon="5.01427">
        <ele>274</ele>
        <time>2018-10-07T09:55:30 02:00</time>
      </trkpt>
      <trkpt lat="44.16647" lon="5.01458">
        <ele>276</ele>
        <time>2018-10-07T09:55:35 02:00</time>
      </trkpt>
      <trkpt lat="44.1667" lon="5.01485">
        <ele>277</ele>
        <time>2018-10-07T09:55:40 02:00</time>
      </trkpt>
      <trkpt lat="44.16688" lon="5.01509">
        <ele>282</ele>
        <time>2018-10-07T09:55:45 02:00</time>
      </trkpt>
      <trkpt lat="44.16704" lon="5.01533">
        <ele>285</ele>
        <time>2018-10-07T09:55:50 02:00</time>
      </trkpt>
      <trkpt lat="44.16717" lon="5.01556">
        <ele>287</ele>
        <time>2018-10-07T09:55:55 02:00</time>
      </trkpt>
      <trkpt lat="44.16731" lon="5.01591">
        <ele>289</ele>
        <time>2018-10-07T09:56:00 02:00</time>
      </trkpt>
      <trkpt lat="44.16748" lon="5.01624">
        <ele>290</ele>
        <time>2018-10-07T09:56:05 02:00</time>
      </trkpt>
      <trkpt lat="44.16758" lon="5.01651">
        <ele>292</ele>
        <time>2018-10-07T09:56:10 02:00</time>
      </trkpt>
      <trkpt lat="44.16764" lon="5.01662">
        <ele>294</ele>
        <time>2018-10-07T09:56:15 02:00</time>
      </trkpt>
      <trkpt lat="44.1678" lon="5.01685">
        <ele>293</ele>
        <time>2018-10-07T09:56:20 02:00</time>
      </trkpt>
      <trkpt lat="44.16791" lon="5.01704">
        <ele>297</ele>
        <time>2018-10-07T09:56:25 02:00</time>
      </trkpt>
      <trkpt lat="44.16793" lon="5.01736">
        <ele>297</ele>
        <time>2018-10-07T09:56:30 02:00</time>
      </trkpt>
      <trkpt lat="44.16797" lon="5.01776">
        <ele>305</ele>
        <time>2018-10-07T09:56:35 02:00</time>
      </trkpt>
      <trkpt lat="44.16799" lon="5.01793">
        <ele>306</ele>
        <time>2018-10-07T09:56:40 02:00</time>
      </trkpt>
      <trkpt lat="44.16806" lon="5.01815">
        <ele>308</ele>
        <time>2018-10-07T09:56:45 02:00</time>
      </trkpt>
      <trkpt lat="44.16812" lon="5.01843">
        <ele>308</ele>
        <time>2018-10-07T09:56:50 02:00</time>
      </trkpt>
      <trkpt lat="44.16819" lon="5.01917">
        <ele>313</ele>
        <time>2018-10-07T09:56:55 02:00</time>
      </trkpt>
      <trkpt lat="44.16808" lon="5.01962">
        <ele>321</ele>
        <time>2018-10-07T09:57:00 02:00</time>
      </trkpt>
      <trkpt lat="44.1679" lon="5.02012">
        <ele>317</ele>
        <time>2018-10-07T09:57:05 02:00</time>
      </trkpt>
      <trkpt lat="44.16781" lon="5.02074">
        <ele>322</ele>
        <time>2018-10-07T09:57:10 02:00</time>
      </trkpt>
      <trkpt lat="44.16777" lon="5.0214">
        <ele>328</ele>
        <time>2018-10-07T09:57:15 02:00</time>
      </trkpt>
      <trkpt lat="44.16776" lon="5.02204">
        <ele>333</ele>
        <time>2018-10-07T09:57:20 02:00</time>
      </trkpt>
      <trkpt lat="44.16771" lon="5.02215">
        <ele>326</ele>
        <time>2018-10-07T09:57:25 02:00</time>
      </trkpt>
      <trkpt lat="44.16765" lon="5.02234">
        <ele>329</ele>
        <time>2018-10-07T09:57:30 02:00</time>
      </trkpt>
      <trkpt lat="44.16765" lon="5.02267">
        <ele>329</ele>
        <time>2018-10-07T09:57:35 02:00</time>
      </trkpt>
      <trkpt lat="44.16765" lon="5.02289">
        <ele>342</ele>
        <time>2018-10-07T09:57:40 02:00</time>
      </trkpt>
      <trkpt lat="44.16756" lon="5.02314">
        <ele>347</ele>
        <time>2018-10-07T09:57:45 02:00</time>
      </trkpt>
      <trkpt lat="44.16755" lon="5.02326">
        <ele>348</ele>
        <time>2018-10-07T09:57:50 02:00</time>
      </trkpt>
      <trkpt lat="44.16761" lon="5.02339">
        <ele>348</ele>
        <time>2018-10-07T09:57:55 02:00</time>
      </trkpt>
      <trkpt lat="44.16772" lon="5.02362">
        <ele>347</ele>
        <time>2018-10-07T09:58:00 02:00</time>
      </trkpt>
      <trkpt lat="44.16781" lon="5.02422">
        <ele>352</ele>
        <time>2018-10-07T09:58:05 02:00</time>
      </trkpt>
      <trkpt lat="44.16788" lon="5.0245">
        <ele>351</ele>
        <time>2018-10-07T09:58:10 02:00</time>
      </trkpt>
      <trkpt lat="44.16793" lon="5.02475">
        <ele>351</ele>
        <time>2018-10-07T09:58:15 02:00</time>
      </trkpt>
      <trkpt lat="44.16795" lon="5.025">
        <ele>354</ele>
        <time>2018-10-07T09:58:20 02:00</time>
      </trkpt>
      <trkpt lat="44.16794" lon="5.02522">
        <ele>354</ele>
        <time>2018-10-07T09:58:25 02:00</time>
      </trkpt>
      <trkpt lat="44.16788" lon="5.02543">
        <ele>357</ele>
        <time>2018-10-07T09:58:30 02:00</time>
      </trkpt>
      <trkpt lat="44.16778" lon="5.02563">
        <ele>362</ele>
        <time>2018-10-07T09:58:35 02:00</time>
      </trkpt>
      <trkpt lat="44.16766" lon="5.02576">
        <ele>367</ele>
        <time>2018-10-07T09:58:40 02:00</time>
      </trkpt>
      <trkpt lat="44.16753" lon="5.0258">
        <ele>372</ele>
        <time>2018-10-07T09:58:45 02:00</time>
      </trkpt>
      <trkpt lat="44.16745" lon="5.0259">
        <ele>375</ele>
        <time>2018-10-07T09:58:50 02:00</time>
      </trkpt>
      <trkpt lat="44.16741" lon="5.02608">
        <ele>378</ele>
        <time>2018-10-07T09:58:55 02:00</time>
      </trkpt>
      <trkpt lat="44.16744" lon="5.02626">
        <ele>378</ele>
        <time>2018-10-07T09:59:00 02:00</time>
      </trkpt>
      <trkpt lat="44.16752" lon="5.02643">
        <ele>376</ele>
        <time>2018-10-07T09:59:05 02:00</time>
      </trkpt>
      <trkpt lat="44.16763" lon="5.02653">
        <ele>373</ele>
        <time>2018-10-07T09:59:10 02:00</time>
      </trkpt>
      <trkpt lat="44.16768" lon="5.02668">
        <ele>373</ele>
        <time>2018-10-07T09:59:15 02:00</time>
      </trkpt>
      <trkpt lat="44.16767" lon="5.02705">
        <ele>377</ele>
        <time>2018-10-07T09:59:20 02:00</time>
      </trkpt>
      <trkpt lat="44.16774" lon="5.02729">
        <ele>377</ele>
        <time>2018-10-07T09:59:25 02:00</time>
      </trkpt>
      <trkpt lat="44.1678" lon="5.02749">
        <ele>377</ele>
        <time>2018-10-07T09:59:30 02:00</time>
      </trkpt>
      <trkpt lat="44.16782" lon="5.0278">
        <ele>379</ele>
        <time>2018-10-07T09:59:35 02:00</time>
      </trkpt>
      <trkpt lat="44.16787" lon="5.02798">
        <ele>379</ele>
        <time>2018-10-07T09:59:40 02:00</time>
      </trkpt>
      <trkpt lat="44.16791" lon="5.02811">
        <ele>379</ele>
        <time>2018-10-07T09:59:45 02:00</time>
      </trkpt>
      <trkpt lat="44.1679" lon="5.02832">
        <ele>382</ele>
        <time>2018-10-07T09:59:50 02:00</time>
      </trkpt>
      <trkpt lat="44.16791" lon="5.02863">
        <ele>385</ele>
        <time>2018-10-07T09:59:55 02:00</time>
      </trkpt>
      <trkpt lat="44.16793" lon="5.0288">
        <ele>386</ele>
        <time>2018-10-07T10:00:00 02:00</time>
      </trkpt>
      <trkpt lat="44.16801" lon="5.02909">
        <ele>387</ele>
        <time>2018-10-07T10:00:05 02:00</time>
      </trkpt>
      <trkpt lat="44.1681" lon="5.02939">
        <ele>389</ele>
        <time>2018-10-07T10:00:10 02:00</time>
      </trkpt>
      <trkpt lat="44.16815" lon="5.02954">
        <ele>390</ele>
        <time>2018-10-07T10:00:15 02:00</time>
      </trkpt>
      <trkpt lat="44.16815" lon="5.02982">
        <ele>394</ele>
        <time>2018-10-07T10:00:20 02:00</time>
      </trkpt>
      <trkpt lat="44.1682" lon="5.03008">
        <ele>398</ele>
        <time>2018-10-07T10:00:25 02:00</time>
      </trkpt>
      <trkpt lat="44.16828" lon="5.03037">
        <ele>402</ele>
        <time>2018-10-07T10:00:30 02:00</time>
      </trkpt>
      <trkpt lat="44.16844" lon="5.03088">
        <ele>410</ele>
        <time>2018-10-07T10:00:35 02:00</time>
      </trkpt>
      <trkpt lat="44.16855" lon="5.03127">
        <ele>416</ele>
        <time>2018-10-07T10:00:40 02:00</time>
      </trkpt>
      <trkpt lat="44.16861" lon="5.03152">
        <ele>419</ele>
        <time>2018-10-07T10:00:45 02:00</time>
      </trkpt>
      <trkpt lat="44.16868" lon="5.03167">
        <ele>421</ele>
        <time>2018-10-07T10:00:50 02:00</time>
      </trkpt>
      <trkpt lat="44.16875" lon="5.03178">
        <ele>421</ele>
        <time>2018-10-07T10:00:55 02:00</time>
      </trkpt>
      <trkpt lat="44.16876" lon="5.03188">
        <ele>423</ele>
        <time>2018-10-07T10:01:00 02:00</time>
      </trkpt>
      <trkpt lat="44.16875" lon="5.03207">
        <ele>425</ele>
        <time>2018-10-07T10:01:05 02:00</time>
      </trkpt>
      <trkpt lat="44.16875" lon="5.03212">
        <ele>426</ele>
        <time>2018-10-07T10:01:10 02:00</time>
      </trkpt>
      <trkpt lat="44.16886" lon="5.03235">
        <ele>427</ele>
        <time>2018-10-07T10:01:15 02:00</time>
      </trkpt>
      <trkpt lat="44.16899" lon="5.03266">
        <ele>427</ele>
        <time>2018-10-07T10:01:20 02:00</time>
      </trkpt>
      <trkpt lat="44.16901" lon="5.033">
        <ele>431</ele>
        <time>2018-10-07T10:01:25 02:00</time>
      </trkpt>
      <trkpt lat="44.16908" lon="5.03324">
        <ele>432</ele>
        <time>2018-10-07T10:01:30 02:00</time>
      </trkpt>
      <trkpt lat="44.16919" lon="5.03352">
        <ele>434</ele>
        <time>2018-10-07T10:01:35 02:00</time>
      </trkpt>
      <trkpt lat="44.16937" lon="5.03382">
        <ele>439</ele>
        <time>2018-10-07T10:01:40 02:00</time>
      </trkpt>
      <trkpt lat="44.16948" lon="5.03396">
        <ele>440</ele>
        <time>2018-10-07T10:01:45 02:00</time>
      </trkpt>
      <trkpt lat="44.16958" lon="5.03406">
        <ele>440</ele>
        <time>2018-10-07T10:01:50 02:00</time>
      </trkpt>
      <trkpt lat="44.16988" lon="5.03421">
        <ele>438</ele>
        <time>2018-10-07T10:01:55 02:00</time>
      </trkpt>
      <trkpt lat="44.16998" lon="5.03435">
        <ele>439</ele>
        <time>2018-10-07T10:02:00 02:00</time>
      </trkpt>
      <trkpt lat="44.17008" lon="5.03452">
        <ele>441</ele>
        <time>2018-10-07T10:02:05 02:00</time>
      </trkpt>
      <trkpt lat="44.17024" lon="5.03474">
        <ele>444</ele>
        <time>2018-10-07T10:02:10 02:00</time>
      </trkpt>
      <trkpt lat="44.17051" lon="5.03496">
        <ele>446</ele>
        <time>2018-10-07T10:02:15 02:00</time>
      </trkpt>
      <trkpt lat="44.17072" lon="5.03511">
        <ele>448</ele>
        <time>2018-10-07T10:02:20 02:00</time>
      </trkpt>
      <trkpt lat="44.17079" lon="5.0352">
        <ele>451</ele>
        <time>2018-10-07T10:02:25 02:00</time>
      </trkpt>
      <trkpt lat="44.171" lon="5.03518">
        <ele>450</ele>
        <time>2018-10-07T10:02:30 02:00</time>
      </trkpt>
      <trkpt lat="44.17119" lon="5.03526">
        <ele>452</ele>
        <time>2018-10-07T10:02:35 02:00</time>
      </trkpt>
      <trkpt lat="44.17165" lon="5.03554">
        <ele>460</ele>
        <time>2018-10-07T10:02:40 02:00</time>
      </trkpt>
      <trkpt lat="44.17184" lon="5.03562">
        <ele>461</ele>
        <time>2018-10-07T10:02:45 02:00</time>
      </trkpt>
      <trkpt lat="44.17196" lon="5.03568">
        <ele>461</ele>
        <time>2018-10-07T10:02:50 02:00</time>
      </trkpt>
      <trkpt lat="44.17207" lon="5.03587">
        <ele>465</ele>
        <time>2018-10-07T10:02:55 02:00</time>
      </trkpt>
      <trkpt lat="44.17232" lon="5.03611">
        <ele>469</ele>
        <time>2018-10-07T10:03:00 02:00</time>
      </trkpt>
      <trkpt lat="44.17262" lon="5.03643">
        <ele>473</ele>
        <time>2018-10-07T10:03:05 02:00</time>
      </trkpt>
      <trkpt lat="44.17273" lon="5.03654">
        <ele>474</ele>
        <time>2018-10-07T10:03:10 02:00</time>
      </trkpt>
      <trkpt lat="44.17296" lon="5.03671">
        <ele>475</ele>
        <time>2018-10-07T10:03:15 02:00</time>
      </trkpt>
      <trkpt lat="44.17319" lon="5.03685">
        <ele>475</ele>
        <time>2018-10-07T10:03:20 02:00</time>
      </trkpt>
      <trkpt lat="44.1735" lon="5.03695">
        <ele>474</ele>
        <time>2018-10-07T10:03:25 02:00</time>
      </trkpt>
      <trkpt lat="44.17374" lon="5.03709">
        <ele>475</ele>
        <time>2018-10-07T10:03:30 02:00</time>
      </trkpt>
      <trkpt lat="44.17403" lon="5.03719">
        <ele>474</ele>
        <time>2018-10-07T10:03:35 02:00</time>
      </trkpt>
      <trkpt lat="44.17425" lon="5.03714">
        <ele>470</ele>
        <time>2018-10-07T10:03:40 02:00</time>
      </trkpt>
      <trkpt lat="44.17442" lon="5.03714">
        <ele>468</ele>
        <time>2018-10-07T10:03:45 02:00</time>
      </trkpt>
      <trkpt lat="44.17459" lon="5.03717">
        <ele>466</ele>
        <time>2018-10-07T10:03:50 02:00</time>
      </trkpt>
      <trkpt lat="44.17471" lon="5.03778">
        <ele>472</ele>
        <time>2018-10-07T10:03:55 02:00</time>
      </trkpt>
      <trkpt lat="44.17484" lon="5.03812">
        <ele>473</ele>
        <time>2018-10-07T10:04:00 02:00</time>
      </trkpt>
      <trkpt lat="44.17497" lon="5.03835">
        <ele>472</ele>
        <time>2018-10-07T10:04:05 02:00</time>
      </trkpt>
      <trkpt lat="44.17515" lon="5.03862">
        <ele>469</ele>
        <time>2018-10-07T10:04:10 02:00</time>
      </trkpt>
      <trkpt lat="44.17518" lon="5.03876">
        <ele>469</ele>
        <time>2018-10-07T10:04:15 02:00</time>
      </trkpt>
      <trkpt lat="44.17518" lon="5.03896">
        <ele>471</ele>
        <time>2018-10-07T10:04:20 02:00</time>
      </trkpt>
      <trkpt lat="44.17522" lon="5.03909">
        <ele>471</ele>
        <time>2018-10-07T10:04:25 02:00</time>
      </trkpt>
      <trkpt lat="44.17542" lon="5.03959">
        <ele>470</ele>
        <time>2018-10-07T10:04:30 02:00</time>
      </trkpt>
      <trkpt lat="44.17562" lon="5.03998">
        <ele>467</ele>
        <time>2018-10-07T10:04:35 02:00</time>
      </trkpt>
      <trkpt lat="44.17573" lon="5.04025">
        <ele>467</ele>
        <time>2018-10-07T10:04:40 02:00</time>
      </trkpt>
      <trkpt lat="44.17586" lon="5.04067">
        <ele>470</ele>
        <time>2018-10-07T10:04:45 02:00</time>
      </trkpt>
      <trkpt lat="44.17597" lon="5.04085">
        <ele>469</ele>
        <time>2018-10-07T10:04:50 02:00</time>
      </trkpt>
      <trkpt lat="44.17617" lon="5.04113">
        <ele>467</ele>
        <time>2018-10-07T10:04:55 02:00</time>
      </trkpt>
      <trkpt lat="44.17656" lon="5.04162">
        <ele>465</ele>
        <time>2018-10-07T10:05:00 02:00</time>
      </trkpt>
      <trkpt lat="44.17676" lon="5.04193">
        <ele>466</ele>
        <time>2018-10-07T10:05:05 02:00</time>
      </trkpt>
      <trkpt lat="44.17697" lon="5.0421">
        <ele>464</ele>
        <time>2018-10-07T10:05:10 02:00</time>
      </trkpt>
      <trkpt lat="44.1771" lon="5.04223">
        <ele>463</ele>
        <time>2018-10-07T10:05:15 02:00</time>
      </trkpt>
      <trkpt lat="44.17724" lon="5.04234">
        <ele>461</ele>
        <time>2018-10-07T10:05:20 02:00</time>
      </trkpt>
      <trkpt lat="44.17734" lon="5.04252">
        <ele>461</ele>
        <time>2018-10-07T10:05:25 02:00</time>
      </trkpt>
      <trkpt lat="44.17742" lon="5.04269">
        <ele>462</ele>
        <time>2018-10-07T10:05:30 02:00</time>
      </trkpt>
      <trkpt lat="44.17753" lon="5.0431">
        <ele>466</ele>
        <time>2018-10-07T10:05:35 02:00</time>
      </trkpt>
      <trkpt lat="44.17769" lon="5.04347">
        <ele>466</ele>
        <time>2018-10-07T10:05:40 02:00</time>
      </trkpt>
      <trkpt lat="44.17777" lon="5.04368">
        <ele>465</ele>
        <time>2018-10-07T10:05:45 02:00</time>
      </trkpt>
      <trkpt lat="44.17784" lon="5.04414">
        <ele>468</ele>
        <time>2018-10-07T10:05:50 02:00</time>
      </trkpt>
      <trkpt lat="44.1779" lon="5.04456">
        <ele>468</ele>
        <time>2018-10-07T10:05:55 02:00</time>
      </trkpt>
      <trkpt lat="44.17794" lon="5.04485">
        <ele>468</ele>
        <time>2018-10-07T10:06:00 02:00</time>
      </trkpt>
      <trkpt lat="44.17795" lon="5.04499">
        <ele>461</ele>
        <time>2018-10-07T10:06:05 02:00</time>
      </trkpt>
      <trkpt lat="44.17787" lon="5.04547">
        <ele>475</ele>
        <time>2018-10-07T10:06:10 02:00</time>
      </trkpt>
      <trkpt lat="44.1777" lon="5.04633">
        <ele>489</ele>
        <time>2018-10-07T10:06:15 02:00</time>
      </trkpt>
      <trkpt lat="44.17767" lon="5.04661">
        <ele>493</ele>
        <time>2018-10-07T10:06:20 02:00</time>
      </trkpt>
      <trkpt lat="44.17768" lon="5.04687">
        <ele>493</ele>
        <time>2018-10-07T10:06:25 02:00</time>
      </trkpt>
      <trkpt lat="44.17772" lon="5.04714">
        <ele>489</ele>
        <time>2018-10-07T10:06:30 02:00</time>
      </trkpt>
      <trkpt lat="44.17782" lon="5.04744">
        <ele>482</ele>
        <time>2018-10-07T10:06:35 02:00</time>
      </trkpt>
      <trkpt lat="44.17782" lon="5.04757">
        <ele>481</ele>
        <time>2018-10-07T10:06:40 02:00</time>
      </trkpt>
      <trkpt lat="44.17773" lon="5.04791">
        <ele>486</ele>
        <time>2018-10-07T10:06:45 02:00</time>
      </trkpt>
      <trkpt lat="44.17768" lon="5.04813">
        <ele>488</ele>
        <time>2018-10-07T10:06:50 02:00</time>
      </trkpt>
      <trkpt lat="44.17768" lon="5.04838">
        <ele>486</ele>
        <time>2018-10-07T10:06:55 02:00</time>
      </trkpt>
      <trkpt lat="44.17769" lon="5.04861">
        <ele>482</ele>
        <time>2018-10-07T10:07:00 02:00</time>
      </trkpt>
      <trkpt lat="44.17762" lon="5.04874">
        <ele>477</ele>
        <time>2018-10-07T10:07:05 02:00</time>
      </trkpt>
      <trkpt lat="44.17758" lon="5.04896">
        <ele>479</ele>
        <time>2018-10-07T10:07:10 02:00</time>
      </trkpt>
      <trkpt lat="44.17758" lon="5.04918">
        <ele>477</ele>
        <time>2018-10-07T10:07:15 02:00</time>
      </trkpt>
      <trkpt lat="44.17749" lon="5.04913">
        <ele>482</ele>
        <time>2018-10-07T10:07:20 02:00</time>
      </trkpt>
      <trkpt lat="44.17733" lon="5.04917">
        <ele>482</ele>
        <time>2018-10-07T10:07:25 02:00</time>
      </trkpt>
      <trkpt lat="44.17721" lon="5.04923">
        <ele>482</ele>
        <time>2018-10-07T10:07:30 02:00</time>
      </trkpt>
      <trkpt lat="44.17709" lon="5.04932">
        <ele>481</ele>
        <time>2018-10-07T10:07:35 02:00</time>
      </trkpt>
      <trkpt lat="44.17688" lon="5.04934">
        <ele>482</ele>
        <time>2018-10-07T10:07:40 02:00</time>
      </trkpt>
      <trkpt lat="44.17675" lon="5.04937">
        <ele>482</ele>
        <time>2018-10-07T10:07:45 02:00</time>
      </trkpt>
      <trkpt lat="44.17666" lon="5.04947">
        <ele>478</ele>
        <time>2018-10-07T10:07:50 02:00</time>
      </trkpt>
      <trkpt lat="44.17667" lon="5.04978">
        <ele>473</ele>
        <time>2018-10-07T10:07:55 02:00</time>
      </trkpt>
      <trkpt lat="44.17666" lon="5.0501">
        <ele>465</ele>
        <time>2018-10-07T10:08:00 02:00</time>
      </trkpt>
      <trkpt lat="44.17664" lon="5.0503">
        <ele>466</ele>
        <time>2018-10-07T10:08:05 02:00</time>
      </trkpt>
      <trkpt lat="44.1766" lon="5.05047">
        <ele>464</ele>
        <time>2018-10-07T10:08:10 02:00</time>
      </trkpt>
      <trkpt lat="44.17638" lon="5.05036">
        <ele>463</ele>
        <time>2018-10-07T10:08:15 02:00</time>
      </trkpt>
      <trkpt lat="44.1761" lon="5.05018">
        <ele>460</ele>
        <time>2018-10-07T10:08:20 02:00</time>
      </trkpt>
      <trkpt lat="44.17588" lon="5.05007">
        <ele>458</ele>
        <time>2018-10-07T10:08:25 02:00</time>
      </trkpt>
      <trkpt lat="44.17578" lon="5.05002">
        <ele>459</ele>
        <time>2018-10-07T10:08:30 02:00</time>
      </trkpt>
      <trkpt lat="44.17557" lon="5.05002">
        <ele>452</ele>
        <time>2018-10-07T10:08:35 02:00</time>
      </trkpt>
      <trkpt lat="44.17533" lon="5.05001">
        <ele>447</ele>
        <time>2018-10-07T10:08:40 02:00</time>
      </trkpt>
      <trkpt lat="44.1752" lon="5.04996">
        <ele>444</ele>
        <time>2018-10-07T10:08:45 02:00</time>
      </trkpt>
      <trkpt lat="44.17506" lon="5.04984">
        <ele>445</ele>
        <time>2018-10-07T10:08:50 02:00</time>
      </trkpt>
      <trkpt lat="44.17504" lon="5.04961">
        <ele>446</ele>
        <time>2018-10-07T10:08:55 02:00</time>
      </trkpt>
      <trkpt lat="44.17504" lon="5.04937">
        <ele>448</ele>
        <time>2018-10-07T10:09:00 02:00</time>
      </trkpt>
      <trkpt lat="44.17502" lon="5.04925">
        <ele>441</ele>
        <time>2018-10-07T10:09:05 02:00</time>
      </trkpt>
      <trkpt lat="44.1749" lon="5.0491">
        <ele>439</ele>
        <time>2018-10-07T10:09:10 02:00</time>
      </trkpt>
      <trkpt lat="44.17467" lon="5.04875">
        <ele>437</ele>
        <time>2018-10-07T10:09:15 02:00</time>
      </trkpt>
      <trkpt lat="44.17448" lon="5.04845">
        <ele>433</ele>
        <time>2018-10-07T10:09:20 02:00</time>
      </trkpt>
      <trkpt lat="44.1743" lon="5.04813">
        <ele>431</ele>
        <time>2018-10-07T10:09:25 02:00</time>
      </trkpt>
      <trkpt lat="44.17414" lon="5.04794">
        <ele>429</ele>
        <time>2018-10-07T10:09:30 02:00</time>
      </trkpt>
      <trkpt lat="44.17403" lon="5.0478">
        <ele>428</ele>
        <time>2018-10-07T10:09:35 02:00</time>
      </trkpt>
      <trkpt lat="44.17375" lon="5.04752">
        <ele>422</ele>
        <time>2018-10-07T10:09:40 02:00</time>
      </trkpt>
      <trkpt lat="44.17361" lon="5.04735">
        <ele>418</ele>
        <time>2018-10-07T10:09:45 02:00</time>
      </trkpt>
      <trkpt lat="44.17328" lon="5.04702">
        <ele>415</ele>
        <time>2018-10-07T10:09:50 02:00</time>
      </trkpt>
      <trkpt lat="44.17303" lon="5.04674">
        <ele>411</ele>
        <time>2018-10-07T10:09:55 02:00</time>
      </trkpt>
      <trkpt lat="44.1729" lon="5.04662">
        <ele>399</ele>
        <time>2018-10-07T10:10:00 02:00</time>
      </trkpt>
      <trkpt lat="44.17278" lon="5.04649">
        <ele>405</ele>
        <time>2018-10-07T10:10:05 02:00</time>
      </trkpt>
      <trkpt lat="44.17262" lon="5.04627">
        <ele>403</ele>
        <time>2018-10-07T10:10:10 02:00</time>
      </trkpt>
      <trkpt lat="44.17247" lon="5.04613">
        <ele>398</ele>
        <time>2018-10-07T10:10:15 02:00</time>
      </trkpt>
      <trkpt lat="44.17233" lon="5.046">
        <ele>395</ele>
        <time>2018-10-07T10:10:20 02:00</time>
      </trkpt>
      <trkpt lat="44.17219" lon="5.04593">
        <ele>391</ele>
        <time>2018-10-07T10:10:25 02:00</time>
      </trkpt>
      <trkpt lat="44.17205" lon="5.04585">
        <ele>386</ele>
        <time>2018-10-07T10:10:30 02:00</time>
      </trkpt>
      <trkpt lat="44.17186" lon="5.0458">
        <ele>379</ele>
        <time>2018-10-07T10:10:35 02:00</time>
      </trkpt>
      <trkpt lat="44.17166" lon="5.04578">
        <ele>371</ele>
        <time>2018-10-07T10:10:40 02:00</time>
      </trkpt>
      <trkpt lat="44.17159" lon="5.04577">
        <ele>371</ele>
        <time>2018-10-07T10:10:45 02:00</time>
      </trkpt>
      <trkpt lat="44.17149" lon="5.04571">
        <ele>370</ele>
        <time>2018-10-07T10:10:50 02:00</time>
      </trkpt>
      <trkpt lat="44.17139" lon="5.04562">
        <ele>370</ele>
        <time>2018-10-07T10:10:55 02:00</time>
      </trkpt>
      <trkpt lat="44.17132" lon="5.0455">
        <ele>364</ele>
        <time>2018-10-07T10:11:00 02:00</time>
      </trkpt>
      <trkpt lat="44.17123" lon="5.04528">
        <ele>365</ele>
        <time>2018-10-07T10:11:05 02:00</time>
      </trkpt>
      <trkpt lat="44.17113" lon="5.04515">
        <ele>368</ele>
        <time>2018-10-07T10:11:10 02:00</time>
      </trkpt>
      <trkpt lat="44.17086" lon="5.04463">
        <ele>364</ele>
        <time>2018-10-07T10:11:15 02:00</time>
      </trkpt>
      <trkpt lat="44.17066" lon="5.04431">
        <ele>360</ele>
        <time>2018-10-07T10:11:20 02:00</time>
      </trkpt>
      <trkpt lat="44.17042" lon="5.04393">
        <ele>361</ele>
        <time>2018-10-07T10:11:25 02:00</time>
      </trkpt>
      <trkpt lat="44.17033" lon="5.0438">
        <ele>361</ele>
        <time>2018-10-07T10:11:30 02:00</time>
      </trkpt>
      <trkpt lat="44.17028" lon="5.0437">
        <ele>361</ele>
        <time>2018-10-07T10:11:35 02:00</time>
      </trkpt>
      <trkpt lat="44.17012" lon="5.04349">
        <ele>358</ele>
        <time>2018-10-07T10:11:40 02:00</time>
      </trkpt>
      <trkpt lat="44.16995" lon="5.04329">
        <ele>358</ele>
        <time>2018-10-07T10:11:45 02:00</time>
      </trkpt>
      <trkpt lat="44.16989" lon="5.04311">
        <ele>358</ele>
        <time>2018-10-07T10:11:50 02:00</time>
      </trkpt>
      <trkpt lat="44.16988" lon="5.04297">
        <ele>358</ele>
        <time>2018-10-07T10:11:55 02:00</time>
      </trkpt>
      <trkpt lat="44.16987" lon="5.04272">
        <ele>362</ele>
        <time>2018-10-07T10:12:00 02:00</time>
      </trkpt>
      <trkpt lat="44.16982" lon="5.04253">
        <ele>364</ele>
        <time>2018-10-07T10:12:05 02:00</time>
      </trkpt>
      <trkpt lat="44.16975" lon="5.04245">
        <ele>358</ele>
        <time>2018-10-07T10:12:10 02:00</time>
      </trkpt>
      <trkpt lat="44.16962" lon="5.04238">
        <ele>358</ele>
        <time>2018-10-07T10:12:15 02:00</time>
      </trkpt>
      <trkpt lat="44.16855" lon="5.04186">
        <ele>351</ele>
        <time>2018-10-07T10:12:20 02:00</time>
      </trkpt>
      <trkpt lat="44.16863" lon="5.04154">
        <ele>355</ele>
        <time>2018-10-07T10:12:25 02:00</time>
      </trkpt>
      <trkpt lat="44.16868" lon="5.04133">
        <ele>364</ele>
        <time>2018-10-07T10:12:30 02:00</time>
      </trkpt>
      <trkpt lat="44.16867" lon="5.04117">
        <ele>367</ele>
        <time>2018-10-07T10:12:35 02:00</time>
      </trkpt>
      <trkpt lat="44.16859" lon="5.04097">
        <ele>364</ele>
        <time>2018-10-07T10:12:40 02:00</time>
      </trkpt>
      <trkpt lat="44.1683" lon="5.04077">
        <ele>365</ele>
        <time>2018-10-07T10:12:45 02:00</time>
      </trkpt>
      <trkpt lat="44.16802" lon="5.04056">
        <ele>368</ele>
        <time>2018-10-07T10:12:50 02:00</time>
      </trkpt>
      <trkpt lat="44.16783" lon="5.04041">
        <ele>369</ele>
        <time>2018-10-07T10:12:55 02:00</time>
      </trkpt>
      <trkpt lat="44.16752" lon="5.04011">
        <ele>371</ele>
        <time>2018-10-07T10:13:00 02:00</time>
      </trkpt>
      <trkpt lat="44.16731" lon="5.03982">
        <ele>375</ele>
        <time>2018-10-07T10:13:05 02:00</time>
      </trkpt>
      <trkpt lat="44.1671" lon="5.03955">
        <ele>378</ele>
        <time>2018-10-07T10:13:10 02:00</time>
      </trkpt>
      <trkpt lat="44.16676" lon="5.03908">
        <ele>375</ele>
        <time>2018-10-07T10:13:15 02:00</time>
      </trkpt>
      <trkpt lat="44.16658" lon="5.03862">
        <ele>388</ele>
        <time>2018-10-07T10:13:20 02:00</time>
      </trkpt>
      <trkpt lat="44.16638" lon="5.03816">
        <ele>391</ele>
        <time>2018-10-07T10:13:25 02:00</time>
      </trkpt>
      <trkpt lat="44.16622" lon="5.03804">
        <ele>395</ele>
        <time>2018-10-07T10:13:30 02:00</time>
      </trkpt>
      <trkpt lat="44.16612" lon="5.03797">
        <ele>393</ele>
        <time>2018-10-07T10:13:35 02:00</time>
      </trkpt>
      <trkpt lat="44.16599" lon="5.0378">
        <ele>395</ele>
        <time>2018-10-07T10:13:40 02:00</time>
      </trkpt>
      <trkpt lat="44.1659" lon="5.03772">
        <ele>395</ele>
        <time>2018-10-07T10:13:45 02:00</time>
      </trkpt>
      <trkpt lat="44.1658" lon="5.03757">
        <ele>396</ele>
        <time>2018-10-07T10:13:50 02:00</time>
      </trkpt>
      <trkpt lat="44.16563" lon="5.03737">
        <ele>396</ele>
        <time>2018-10-07T10:13:55 02:00</time>
      </trkpt>
      <trkpt lat="44.16532" lon="5.03691">
        <ele>396</ele>
        <time>2018-10-07T10:14:00 02:00</time>
      </trkpt>
      <trkpt lat="44.16506" lon="5.03651">
        <ele>397</ele>
        <time>2018-10-07T10:14:05 02:00</time>
      </trkpt>
      <trkpt lat="44.16487" lon="5.03619">
        <ele>397</ele>
        <time>2018-10-07T10:14:10 02:00</time>
      </trkpt>
      <trkpt lat="44.1647" lon="5.03592">
        <ele>400</ele>
        <time>2018-10-07T10:14:15 02:00</time>
      </trkpt>
      <trkpt lat="44.16456" lon="5.03565">
        <ele>399</ele>
        <time>2018-10-07T10:14:20 02:00</time>
      </trkpt>
      <trkpt lat="44.16438" lon="5.03527">
        <ele>394</ele>
        <time>2018-10-07T10:14:25 02:00</time>
      </trkpt>
      <trkpt lat="44.1642" lon="5.03477">
        <ele>395</ele>
        <time>2018-10-07T10:14:30 02:00</time>
      </trkpt>
      <trkpt lat="44.16393" lon="5.03398">
        <ele>400</ele>
        <time>2018-10-07T10:14:35 02:00</time>
      </trkpt>
      <trkpt lat="44.16375" lon="5.03341">
        <ele>399</ele>
        <time>2018-10-07T10:14:40 02:00</time>
      </trkpt>
      <trkpt lat="44.16361" lon="5.03296">
        <ele>397</ele>
        <time>2018-10-07T10:14:45 02:00</time>
      </trkpt>
      <trkpt lat="44.16347" lon="5.03242">
        <ele>393</ele>
        <time>2018-10-07T10:14:50 02:00</time>
      </trkpt>
      <trkpt lat="44.16336" lon="5.03193">
        <ele>390</ele>
        <time>2018-10-07T10:14:55 02:00</time>
      </trkpt>
      <trkpt lat="44.16329" lon="5.03147">
        <ele>390</ele>
        <time>2018-10-07T10:15:00 02:00</time>
      </trkpt>
      <trkpt lat="44.16324" lon="5.0312">
        <ele>377</ele>
        <time>2018-10-07T10:15:05 02:00</time>
      </trkpt>
      <trkpt lat="44.16316" lon="5.03109">
        <ele>389</ele>
        <time>2018-10-07T10:15:10 02:00</time>
      </trkpt>
      <trkpt lat="44.16299" lon="5.03077">
        <ele>386</ele>
        <time>2018-10-07T10:15:15 02:00</time>
      </trkpt>
      <trkpt lat="44.16287" lon="5.03046">
        <ele>388</ele>
        <time>2018-10-07T10:15:20 02:00</time>
      </trkpt>
      <trkpt lat="44.16273" lon="5.03014">
        <ele>384</ele>
        <time>2018-10-07T10:15:25 02:00</time>
      </trkpt>
      <trkpt lat="44.16256" lon="5.02983">
        <ele>384</ele>
        <time>2018-10-07T10:15:30 02:00</time>
      </trkpt>
      <trkpt lat="44.16238" lon="5.0295">
        <ele>385</ele>
        <time>2018-10-07T10:15:35 02:00</time>
      </trkpt>
      <trkpt lat="44.16224" lon="5.02924">
        <ele>391</ele>
        <time>2018-10-07T10:15:40 02:00</time>
      </trkpt>
      <trkpt lat="44.16211" lon="5.02901">
        <ele>388</ele>
        <time>2018-10-07T10:15:45 02:00</time>
      </trkpt>
      <trkpt lat="44.162" lon="5.0287">
        <ele>385</ele>
        <time>2018-10-07T10:15:50 02:00</time>
      </trkpt>
      <trkpt lat="44.162" lon="5.0285">
        <ele>387</ele>
        <time>2018-10-07T10:15:55 02:00</time>
      </trkpt>
      <trkpt lat="44.16205" lon="5.02819">
        <ele>390</ele>
        <time>2018-10-07T10:16:00 02:00</time>
      </trkpt>
      <trkpt lat="44.16191" lon="5.02801">
        <ele>393</ele>
        <time>2018-10-07T10:16:05 02:00</time>
      </trkpt>
      <trkpt lat="44.16177" lon="5.02786">
        <ele>386</ele>
        <time>2018-10-07T10:16:10 02:00</time>
      </trkpt>
      <trkpt lat="44.16175" lon="5.02766">
        <ele>389</ele>
        <time>2018-10-07T10:16:15 02:00</time>
      </trkpt>
      <trkpt lat="44.16169" lon="5.02749">
        <ele>393</ele>
        <time>2018-10-07T10:16:20 02:00</time>
      </trkpt>
      <trkpt lat="44.16159" lon="5.02742">
        <ele>393</ele>
        <time>2018-10-07T10:16:25 02:00</time>
      </trkpt>
      <trkpt lat="44.1611" lon="5.02734">
        <ele>386</ele>
        <time>2018-10-07T10:16:30 02:00</time>
      </trkpt>
      <trkpt lat="44.16098" lon="5.02728">
        <ele>385</ele>
        <time>2018-10-07T10:16:35 02:00</time>
      </trkpt>
      <trkpt lat="44.16082" lon="5.02713">
        <ele>389</ele>
        <time>2018-10-07T10:16:40 02:00</time>
      </trkpt>
      <trkpt lat="44.16064" lon="5.02693">
        <ele>391</ele>
        <time>2018-10-07T10:16:45 02:00</time>
      </trkpt>
      <trkpt lat="44.16032" lon="5.02668">
        <ele>391</ele>
        <time>2018-10-07T10:16:50 02:00</time>
      </trkpt>
      <trkpt lat="44.16001" lon="5.02644">
        <ele>391</ele>
        <time>2018-10-07T10:16:55 02:00</time>
      </trkpt>
      <trkpt lat="44.15977" lon="5.02621">
        <ele>396</ele>
        <time>2018-10-07T10:17:00 02:00</time>
      </trkpt>
      <trkpt lat="44.1594" lon="5.02579">
        <ele>399</ele>
        <time>2018-10-07T10:17:05 02:00</time>
      </trkpt>
      <trkpt lat="44.15931" lon="5.02551">
        <ele>401</ele>
        <time>2018-10-07T10:17:10 02:00</time>
      </trkpt>
      <trkpt lat="44.15917" lon="5.02519">
        <ele>399</ele>
        <time>2018-10-07T10:17:15 02:00</time>
      </trkpt>
      <trkpt lat="44.15898" lon="5.02475">
        <ele>405</ele>
        <time>2018-10-07T10:17:20 02:00</time>
      </trkpt>
      <trkpt lat="44.15892" lon="5.02433">
        <ele>406</ele>
        <time>2018-10-07T10:17:25 02:00</time>
      </trkpt>
      <trkpt lat="44.15893" lon="5.02404">
        <ele>405</ele>
        <time>2018-10-07T10:17:30 02:00</time>
      </trkpt>
      <trkpt lat="44.1589" lon="5.02346">
        <ele>401</ele>
        <time>2018-10-07T10:17:35 02:00</time>
      </trkpt>
      <trkpt lat="44.15894" lon="5.02324">
        <ele>399</ele>
        <time>2018-10-07T10:17:40 02:00</time>
      </trkpt>
      <trkpt lat="44.15899" lon="5.0231">
        <ele>396</ele>
        <time>2018-10-07T10:17:45 02:00</time>
      </trkpt>
      <trkpt lat="44.15907" lon="5.02296">
        <ele>394</ele>
        <time>2018-10-07T10:17:50 02:00</time>
      </trkpt>
      <trkpt lat="44.15913" lon="5.02274">
        <ele>380</ele>
        <time>2018-10-07T10:17:55 02:00</time>
      </trkpt>
      <trkpt lat="44.1593" lon="5.02213">
        <ele>375</ele>
        <time>2018-10-07T10:18:00 02:00</time>
      </trkpt>
      <trkpt lat="44.15937" lon="5.02171">
        <ele>382</ele>
        <time>2018-10-07T10:18:05 02:00</time>
      </trkpt>
      <trkpt lat="44.1595" lon="5.02127">
        <ele>379</ele>
        <time>2018-10-07T10:18:10 02:00</time>
      </trkpt>
      <trkpt lat="44.15956" lon="5.02102">
        <ele>361</ele>
        <time>2018-10-07T10:18:15 02:00</time>
      </trkpt>
      <trkpt lat="44.15966" lon="5.02076">
        <ele>361</ele>
        <time>2018-10-07T10:18:20 02:00</time>
      </trkpt>
      <trkpt lat="44.15972" lon="5.02051">
        <ele>359</ele>
        <time>2018-10-07T10:18:25 02:00</time>
      </trkpt>
      <trkpt lat="44.15987" lon="5.01989">
        <ele>358</ele>
        <time>2018-10-07T10:18:30 02:00</time>
      </trkpt>
      <trkpt lat="44.15995" lon="5.01963">
        <ele>352</ele>
        <time>2018-10-07T10:18:35 02:00</time>
      </trkpt>
      <trkpt lat="44.16005" lon="5.01943">
        <ele>350</ele>
        <time>2018-10-07T10:18:40 02:00</time>
      </trkpt>
      <trkpt lat="44.16018" lon="5.01913">
        <ele>344</ele>
        <time>2018-10-07T10:18:45 02:00</time>
      </trkpt>
      <trkpt lat="44.16022" lon="5.01889">
        <ele>341</ele>
        <time>2018-10-07T10:18:50 02:00</time>
      </trkpt>
      <trkpt lat="44.16025" lon="5.01866">
        <ele>337</ele>
        <time>2018-10-07T10:18:55 02:00</time>
      </trkpt>
      <trkpt lat="44.16056" lon="5.01826">
        <ele>338</ele>
        <time>2018-10-07T10:19:00 02:00</time>
      </trkpt>
      <trkpt lat="44.16073" lon="5.01804">
        <ele>334</ele>
        <time>2018-10-07T10:19:05 02:00</time>
      </trkpt>
      <trkpt lat="44.1609" lon="5.01788">
        <ele>327</ele>
        <time>2018-10-07T10:19:10 02:00</time>
      </trkpt>
      <trkpt lat="44.16102" lon="5.01777">
        <ele>323</ele>
        <time>2018-10-07T10:19:15 02:00</time>
      </trkpt>
      <trkpt lat="44.16132" lon="5.01753">
        <ele>316</ele>
        <time>2018-10-07T10:19:20 02:00</time>
      </trkpt>
      <trkpt lat="44.16154" lon="5.0173">
        <ele>314</ele>
        <time>2018-10-07T10:19:25 02:00</time>
      </trkpt>
      <trkpt lat="44.16179" lon="5.0172">
        <ele>312</ele>
        <time>2018-10-07T10:19:30 02:00</time>
      </trkpt>
      <trkpt lat="44.1623" lon="5.01702">
        <ele>306</ele>
        <time>2018-10-07T10:19:35 02:00</time>
      </trkpt>
      <trkpt lat="44.1627" lon="5.01691">
        <ele>305</ele>
        <time>2018-10-07T10:19:40 02:00</time>
      </trkpt>
      <trkpt lat="44.16306" lon="5.01684">
        <ele>302</ele>
        <time>2018-10-07T10:19:45 02:00</time>
      </trkpt>
      <trkpt lat="44.1633" lon="5.01676">
        <ele>299</ele>
        <time>2018-10-07T10:19:50 02:00</time>
      </trkpt>
      <trkpt lat="44.16351" lon="5.01659">
        <ele>295</ele>
        <time>2018-10-07T10:19:55 02:00</time>
      </trkpt>
      <trkpt lat="44.1637" lon="5.01657">
        <ele>295</ele>
        <time>2018-10-07T10:20:00 02:00</time>
      </trkpt>
      <trkpt lat="44.16388" lon="5.01657">
        <ele>294</ele>
        <time>2018-10-07T10:20:05 02:00</time>
      </trkpt>
      <trkpt lat="44.16415" lon="5.01675">
        <ele>295</ele>
        <time>2018-10-07T10:20:10 02:00</time>
      </trkpt>
      <trkpt lat="44.16439" lon="5.01673">
        <ele>298</ele>
        <time>2018-10-07T10:20:15 02:00</time>
      </trkpt>
      <trkpt lat="44.16447" lon="5.01653">
        <ele>296</ele>
        <time>2018-10-07T10:20:20 02:00</time>
      </trkpt>
      <trkpt lat="44.16464" lon="5.01621">
        <ele>284</ele>
        <time>2018-10-07T10:20:25 02:00</time>
      </trkpt>
      <trkpt lat="44.16478" lon="5.01606">
        <ele>283</ele>
        <time>2018-10-07T10:20:30 02:00</time>
      </trkpt>
      <trkpt lat="44.16496" lon="5.01592">
        <ele>283</ele>
        <time>2018-10-07T10:20:35 02:00</time>
      </trkpt>
      <trkpt lat="44.16523" lon="5.01576">
        <ele>284</ele>
        <time>2018-10-07T10:20:40 02:00</time>
      </trkpt>
      <trkpt lat="44.16539" lon="5.01565">
        <ele>284</ele>
        <time>2018-10-07T10:20:45 02:00</time>
      </trkpt>
      <trkpt lat="44.16585" lon="5.01507">
        <ele>274</ele>
        <time>2018-10-07T10:20:50 02:00</time>
      </trkpt>
      <trkpt lat="44.16614" lon="5.01471">
        <ele>269</ele>
        <time>2018-10-07T10:20:55 02:00</time>
      </trkpt>
      <trkpt lat="44.16621" lon="5.01453">
        <ele>268</ele>
        <time>2018-10-07T10:21:00 02:00</time>
      </trkpt>
      <trkpt lat="44.16627" lon="5.01406">
        <ele>274</ele>
        <time>2018-10-07T10:21:05 02:00</time>
      </trkpt>
      <trkpt lat="44.16618" lon="5.01419">
        <ele>273</ele>
        <time>2018-10-07T10:21:10 02:00</time>
      </trkpt>
      <trkpt lat="44.16605" lon="5.01424">
        <ele>272</ele>
        <time>2018-10-07T10:21:15 02:00</time>
      </trkpt>
      <trkpt lat="44.16598" lon="5.01422">
        <ele>272</ele>
        <time>2018-10-07T10:21:20 02:00</time>
      </trkpt>
      <trkpt lat="44.16593" lon="5.01413">
        <ele>271</ele>
        <time>2018-10-07T10:21:25 02:00</time>
      </trkpt>
      <trkpt lat="44.16594" lon="5.01391">
        <ele>272</ele>
        <time>2018-10-07T10:21:30 02:00</time>
      </trkpt>
      <trkpt lat="44.16604" lon="5.0131">
        <ele>275</ele>
        <time>2018-10-07T10:21:35 02:00</time>
      </trkpt>
      <trkpt lat="44.16614" lon="5.01263">
        <ele>275</ele>
        <time>2018-10-07T10:21:40 02:00</time>
      </trkpt>
      <trkpt lat="44.16623" lon="5.01232">
        <ele>274</ele>
        <time>2018-10-07T10:21:45 02:00</time>
      </trkpt>
      <trkpt lat="44.16633" lon="5.01208">
        <ele>272</ele>
        <time>2018-10-07T10:21:50 02:00</time>
      </trkpt>
      <trkpt lat="44.1664" lon="5.01193">
        <ele>270</ele>
        <time>2018-10-07T10:21:55 02:00</time>
      </trkpt>
      <trkpt lat="44.16655" lon="5.01172">
        <ele>265</ele>
        <time>2018-10-07T10:22:00 02:00</time>
      </trkpt>
      <trkpt lat="44.16668" lon="5.01104">
        <ele>262</ele>
        <time>2018-10-07T10:22:05 02:00</time>
      </trkpt>
      <trkpt lat="44.1666" lon="5.01076">
        <ele>265</ele>
        <time>2018-10-07T10:22:10 02:00</time>
      </trkpt>
      <trkpt lat="44.1665" lon="5.01034">
        <ele>264</ele>
        <time>2018-10-07T10:22:15 02:00</time>
      </trkpt>
      <trkpt lat="44.16636" lon="5.00999">
        <ele>264</ele>
        <time>2018-10-07T10:22:20 02:00</time>
      </trkpt>
      <trkpt lat="44.16624" lon="5.00977">
        <ele>264</ele>
        <time>2018-10-07T10:22:25 02:00</time>
      </trkpt>
      <trkpt lat="44.16611" lon="5.00961">
        <ele>265</ele>
        <time>2018-10-07T10:22:30 02:00</time>
      </trkpt>
      <trkpt lat="44.166" lon="5.00942">
        <ele>264</ele>
        <time>2018-10-07T10:22:35 02:00</time>
      </trkpt>
      <trkpt lat="44.16593" lon="5.00927">
        <ele>264</ele>
        <time>2018-10-07T10:22:40 02:00</time>
      </trkpt>
      <trkpt lat="44.16589" lon="5.00898">
        <ele>261</ele>
        <time>2018-10-07T10:22:45 02:00</time>
      </trkpt>
      <trkpt lat="44.16585" lon="5.00877">
        <ele>259</ele>
        <time>2018-10-07T10:22:50 02:00</time>
      </trkpt>
      <trkpt lat="44.16577" lon="5.0086">
        <ele>260</ele>
        <time>2018-10-07T10:22:55 02:00</time>
      </trkpt>
      <trkpt lat="44.16566" lon="5.00843">
        <ele>262</ele>
        <time>2018-10-07T10:23:00 02:00</time>
      </trkpt>
      <trkpt lat="44.16558" lon="5.00836">
        <ele>263</ele>
        <time>2018-10-07T10:23:05 02:00</time>
      </trkpt>
      <trkpt lat="44.16547" lon="5.00824">
        <ele>265</ele>
        <time>2018-10-07T10:23:10 02:00</time>
      </trkpt>
      <trkpt lat="44.16492" lon="5.00729">
        <ele>258</ele>
        <time>2018-10-07T10:23:15 02:00</time>
      </trkpt>
      <trkpt lat="44.16466" lon="5.00691">
        <ele>257</ele>
        <time>2018-10-07T10:23:20 02:00</time>
      </trkpt>
      <trkpt lat="44.16465" lon="5.00678">
        <ele>255</ele>
        <time>2018-10-07T10:23:25 02:00</time>
      </trkpt>
      <trkpt lat="44.16463" lon="5.0065">
        <ele>252</ele>
        <time>2018-10-07T10:23:30 02:00</time>
      </trkpt>
      <trkpt lat="44.16451" lon="5.00627">
        <ele>252</ele>
        <time>2018-10-07T10:23:35 02:00</time>
      </trkpt>
      <trkpt lat="44.16443" lon="5.00611">
        <ele>252</ele>
        <time>2018-10-07T10:23:40 02:00</time>
      </trkpt>
      <trkpt lat="44.16437" lon="5.00584">
        <ele>249</ele>
        <time>2018-10-07T10:23:45 02:00</time>
      </trkpt>
      <trkpt lat="44.1643" lon="5.00569">
        <ele>249</ele>
        <time>2018-10-07T10:23:50 02:00</time>
      </trkpt>
      <trkpt lat="44.16415" lon="5.00545">
        <ele>248</ele>
        <time>2018-10-07T10:23:55 02:00</time>
      </trkpt>
      <trkpt lat="44.16413" lon="5.00538">
        <ele>247</ele>
        <time>2018-10-07T10:24:00 02:00</time>
      </trkpt>
      <trkpt lat="44.16417" lon="5.00518">
        <ele>243</ele>
        <time>2018-10-07T10:24:05 02:00</time>
      </trkpt>
      <trkpt lat="44.16412" lon="5.00493">
        <ele>241</ele>
        <time>2018-10-07T10:24:10 02:00</time>
      </trkpt>
      <trkpt lat="44.16388" lon="5.00455">
        <ele>241</ele>
        <time>2018-10-07T10:24:15 02:00</time>
      </trkpt>
      <trkpt lat="44.16366" lon="5.0043">
        <ele>241</ele>
        <time>2018-10-07T10:24:20 02:00</time>
      </trkpt>
      <trkpt lat="44.16336" lon="5.00424">
        <ele>243</ele>
        <time>2018-10-07T10:24:25 02:00</time>
      </trkpt>
      <trkpt lat="44.16327" lon="5.00416">
        <ele>243</ele>
        <time>2018-10-07T10:24:30 02:00</time>
      </trkpt>
      <trkpt lat="44.16324" lon="5.00409">
        <ele>243</ele>
        <time>2018-10-07T10:24:35 02:00</time>
      </trkpt>
      <trkpt lat="44.16342" lon="5.004">
        <ele>240</ele>
        <time>2018-10-07T10:24:40 02:00</time>
      </trkpt>
      <trkpt lat="44.16322" lon="5.00354">
        <ele>239</ele>
        <time>2018-10-07T10:24:45 02:00</time>
      </trkpt>
      <trkpt lat="44.16319" lon="5.00336">
        <ele>238</ele>
        <time>2018-10-07T10:24:50 02:00</time>
      </trkpt>
      <trkpt lat="44.16324" lon="5.00303">
        <ele>237</ele>
        <time>2018-10-07T10:24:55 02:00</time>
      </trkpt>
    </trkseg>
  </trk>
</gpx>